sensor_id;sensor_type;location;lat;lon;timestamp;P1;durP1;ratioP1;P2;durP2;ratioP2
54372;SDS011;69157;53.094;10.016;2024-03-23T00:53:17;6.05;;;1.50;;
54372;SDS011;69157;53.094;10.016;2024-03-23T00:55:43;7.32;;;1.52;;
54372;SDS011;69157;53.094;10.016;2024-03-23T00:58:09;6.50;;;1.55;;
54372;SDS011;69157;53.094;10.016;2024-03-23T01:00:35;10.40;;;1.90;;
54372;SDS011;69157;53.094;10.016;2024-03-23T01:03:02;6.63;;;1.92;;
54372;SDS011;69157;53.094;10.016;2024-03-23T01:05:28;6.00;;;1.30;;
54372;SDS011;69157;53.094;10.016;2024-03-23T01:07:56;9.80;;;2.30;;
54372;SDS011;69157;53.094;10.016;2024-03-23T01:10:22;4.72;;;1.73;;
54372;SDS011;69157;53.094;10.016;2024-03-23T01:12:48;7.38;;;1.60;;
54372;SDS011;69157;53.094;10.016;2024-03-23T01:15:14;6.05;;;1.30;;
54372;SDS011;69157;53.094;10.016;2024-03-23T01:17:39;5.50;;;1.75;;
54372;SDS011;69157;53.094;10.016;2024-03-23T01:20:06;5.40;;;1.27;;
54372;SDS011;69157;53.094;10.016;2024-03-23T01:22:32;7.28;;;1.40;;
54372;SDS011;69157;53.094;10.016;2024-03-23T01:24:58;4.18;;;1.40;;
54372;SDS011;69157;53.094;10.016;2024-03-23T01:27:24;3.65;;;1.17;;
54372;SDS011;69157;53.094;10.016;2024-03-23T01:29:50;7.05;;;1.60;;
54372;SDS011;69157;53.094;10.016;2024-03-23T01:32:17;7.07;;;1.30;;
54372;SDS011;69157;53.094;10.016;2024-03-23T01:34:43;2.22;;;0.98;;
54372;SDS011;69157;53.094;10.016;2024-03-23T01:37:09;6.90;;;1.33;;
54372;SDS011;69157;53.094;10.016;2024-03-23T01:39:35;5.15;;;1.05;;
54372;SDS011;69157;53.094;10.016;2024-03-23T01:42:01;7.03;;;1.48;;
54372;SDS011;69157;53.094;10.016;2024-03-23T01:44:27;6.78;;;1.40;;
54372;SDS011;69157;53.094;10.016;2024-03-23T01:46:53;5.95;;;1.30;;
54372;SDS011;69157;53.094;10.016;2024-03-23T01:49:19;4.47;;;1.40;;
54372;SDS011;69157;53.094;10.016;2024-03-23T01:51:46;9.23;;;1.23;;
54372;SDS011;69157;53.094;10.016;2024-03-23T01:54:12;5.15;;;1.38;;
54372;SDS011;69157;53.094;10.016;2024-03-23T01:56:38;3.72;;;1.55;;
54372;SDS011;69157;53.094;10.016;2024-03-23T01:59:04;3.85;;;1.60;;
54372;SDS011;69157;53.094;10.016;2024-03-23T02:01:30;5.95;;;1.52;;
54372;SDS011;69157;53.094;10.016;2024-03-23T02:03:56;5.82;;;1.33;;
54372;SDS011;69157;53.094;10.016;2024-03-23T02:06:23;4.95;;;1.50;;
54372;SDS011;69157;53.094;10.016;2024-03-23T02:08:50;6.00;;;1.50;;
54372;SDS011;69157;53.094;10.016;2024-03-23T02:11:16;3.47;;;1.45;;
54372;SDS011;69157;53.094;10.016;2024-03-23T02:13:42;5.43;;;1.50;;
54372;SDS011;69157;53.094;10.016;2024-03-23T02:16:08;3.78;;;1.67;;
54372;SDS011;69157;53.094;10.016;2024-03-23T02:18:34;6.60;;;1.88;;
54372;SDS011;69157;53.094;10.016;2024-03-23T02:21:00;3.20;;;1.42;;
54372;SDS011;69157;53.094;10.016;2024-03-23T02:23:26;4.30;;;1.10;;
54372;SDS011;69157;53.094;10.016;2024-03-23T02:25:52;6.20;;;1.70;;
54372;SDS011;69157;53.094;10.016;2024-03-23T02:28:21;11.55;;;2.25;;
54372;SDS011;69157;53.094;10.016;2024-03-23T02:30:48;4.22;;;1.25;;
54372;SDS011;69157;53.094;10.016;2024-03-23T02:33:14;6.32;;;1.35;;
54372;SDS011;69157;53.094;10.016;2024-03-23T02:35:40;3.28;;;1.55;;
54372;SDS011;69157;53.094;10.016;2024-03-23T02:38:07;3.95;;;1.10;;
54372;SDS011;69157;53.094;10.016;2024-03-23T02:40:33;11.27;;;1.52;;
54372;SDS011;69157;53.094;10.016;2024-03-23T02:42:59;3.67;;;1.88;;
54372;SDS011;69157;53.094;10.016;2024-03-23T02:45:25;5.22;;;1.98;;
54372;SDS011;69157;53.094;10.016;2024-03-23T02:47:51;6.50;;;1.95;;
54372;SDS011;69157;53.094;10.016;2024-03-23T02:50:18;2.35;;;1.23;;
54372;SDS011;69157;53.094;10.016;2024-03-23T02:52:44;2.03;;;1.20;;
54372;SDS011;69157;53.094;10.016;2024-03-23T02:55:10;4.20;;;1.92;;
54372;SDS011;69157;53.094;10.016;2024-03-23T02:57:36;3.05;;;1.40;;
54372;SDS011;69157;53.094;10.016;2024-03-23T03:00:02;3.15;;;1.63;;
54372;SDS011;69157;53.094;10.016;2024-03-23T03:02:29;4.38;;;1.67;;
54372;SDS011;69157;53.094;10.016;2024-03-23T03:04:55;13.95;;;2.03;;
54372;SDS011;69157;53.094;10.016;2024-03-23T03:07:21;3.10;;;1.30;;
54372;SDS011;69157;53.094;10.016;2024-03-23T03:09:47;4.82;;;1.83;;
54372;SDS011;69157;53.094;10.016;2024-03-23T03:12:13;5.55;;;1.58;;
54372;SDS011;69157;53.094;10.016;2024-03-23T03:14:39;6.88;;;1.83;;
54372;SDS011;69157;53.094;10.016;2024-03-23T03:17:04;2.05;;;1.38;;
54372;SDS011;69157;53.094;10.016;2024-03-23T03:19:31;7.75;;;2.13;;
54372;SDS011;69157;53.094;10.016;2024-03-23T03:21:57;4.72;;;1.63;;
54372;SDS011;69157;53.094;10.016;2024-03-23T03:24:23;3.88;;;1.67;;
54372;SDS011;69157;53.094;10.016;2024-03-23T03:26:49;8.75;;;2.08;;
54372;SDS011;69157;53.094;10.016;2024-03-23T03:29:15;7.03;;;2.00;;
54372;SDS011;69157;53.094;10.016;2024-03-23T03:31:41;5.95;;;1.98;;
54372;SDS011;69157;53.094;10.016;2024-03-23T03:34:08;10.60;;;2.30;;
54372;SDS011;69157;53.094;10.016;2024-03-23T03:36:34;6.22;;;2.00;;
54372;SDS011;69157;53.094;10.016;2024-03-23T03:39:00;8.38;;;1.80;;
54372;SDS011;69157;53.094;10.016;2024-03-23T03:41:27;3.63;;;1.63;;
54372;SDS011;69157;53.094;10.016;2024-03-23T03:43:53;8.00;;;2.35;;
54372;SDS011;69157;53.094;10.016;2024-03-23T03:46:21;5.88;;;2.25;;
54372;SDS011;69157;53.094;10.016;2024-03-23T03:48:47;8.70;;;1.92;;
54372;SDS011;69157;53.094;10.016;2024-03-23T03:51:13;4.28;;;1.58;;
54372;SDS011;69157;53.094;10.016;2024-03-23T03:53:39;7.53;;;2.13;;
54372;SDS011;69157;53.094;10.016;2024-03-23T03:56:05;6.70;;;2.42;;
54372;SDS011;69157;53.094;10.016;2024-03-23T03:58:31;9.73;;;2.70;;
54372;SDS011;69157;53.094;10.016;2024-03-23T04:00:57;8.63;;;2.67;;
54372;SDS011;69157;53.094;10.016;2024-03-23T04:03:24;4.45;;;1.98;;
54372;SDS011;69157;53.094;10.016;2024-03-23T04:05:54;6.15;;;2.35;;
54372;SDS011;69157;53.094;10.016;2024-03-23T04:08:20;10.82;;;2.75;;
54372;SDS011;69157;53.094;10.016;2024-03-23T04:10:46;8.95;;;2.53;;
54372;SDS011;69157;53.094;10.016;2024-03-23T04:13:13;11.43;;;2.40;;
54372;SDS011;69157;53.094;10.016;2024-03-23T04:15:39;8.63;;;2.47;;
54372;SDS011;69157;53.094;10.016;2024-03-23T04:18:05;6.85;;;2.40;;
54372;SDS011;69157;53.094;10.016;2024-03-23T04:20:31;2.70;;;2.03;;
54372;SDS011;69157;53.094;10.016;2024-03-23T04:22:58;3.40;;;1.98;;
54372;SDS011;69157;53.094;10.016;2024-03-23T04:25:24;4.40;;;2.33;;
54372;SDS011;69157;53.094;10.016;2024-03-23T04:27:50;4.88;;;2.67;;
54372;SDS011;69157;53.094;10.016;2024-03-23T04:30:16;11.63;;;2.80;;
54372;SDS011;69157;53.094;10.016;2024-03-23T04:32:42;4.03;;;2.13;;
54372;SDS011;69157;53.094;10.016;2024-03-23T04:35:08;13.68;;;3.17;;
54372;SDS011;69157;53.094;10.016;2024-03-23T04:37:37;5.28;;;2.60;;
54372;SDS011;69157;53.094;10.016;2024-03-23T04:40:06;5.20;;;2.20;;
54372;SDS011;69157;53.094;10.016;2024-03-23T04:42:33;10.35;;;2.92;;
54372;SDS011;69157;53.094;10.016;2024-03-23T04:44:59;10.15;;;3.42;;
54372;SDS011;69157;53.094;10.016;2024-03-23T04:47:25;18.05;;;2.40;;
54372;SDS011;69157;53.094;10.016;2024-03-23T04:49:51;6.53;;;2.58;;
54372;SDS011;69157;53.094;10.016;2024-03-23T04:52:17;9.15;;;2.85;;
54372;SDS011;69157;53.094;10.016;2024-03-23T04:54:44;14.13;;;1.98;;
54372;SDS011;69157;53.094;10.016;2024-03-23T04:57:11;9.30;;;2.85;;
54372;SDS011;69157;53.094;10.016;2024-03-23T04:59:37;6.97;;;2.42;;
54372;SDS011;69157;53.094;10.016;2024-03-23T05:02:03;7.57;;;2.17;;
54372;SDS011;69157;53.094;10.016;2024-03-23T05:04:29;5.72;;;2.70;;
54372;SDS011;69157;53.094;10.016;2024-03-23T05:06:55;5.75;;;2.50;;
54372;SDS011;69157;53.094;10.016;2024-03-23T05:09:21;8.98;;;1.85;;
54372;SDS011;69157;53.094;10.016;2024-03-23T05:11:48;16.35;;;2.88;;
54372;SDS011;69157;53.094;10.016;2024-03-23T05:14:14;6.82;;;3.00;;
54372;SDS011;69157;53.094;10.016;2024-03-23T05:16:40;6.85;;;2.78;;
54372;SDS011;69157;53.094;10.016;2024-03-23T05:19:06;5.78;;;2.55;;
54372;SDS011;69157;53.094;10.016;2024-03-23T05:21:32;4.15;;;2.20;;
54372;SDS011;69157;53.094;10.016;2024-03-23T05:23:58;6.50;;;2.13;;
54372;SDS011;69157;53.094;10.016;2024-03-23T05:26:24;7.95;;;3.08;;
54372;SDS011;69157;53.094;10.016;2024-03-23T05:28:49;2.60;;;1.90;;
54372;SDS011;69157;53.094;10.016;2024-03-23T05:31:25;5.65;;;1.88;;
54372;SDS011;69157;53.094;10.016;2024-03-23T05:33:51;5.40;;;1.90;;
54372;SDS011;69157;53.094;10.016;2024-03-23T05:36:18;9.30;;;2.08;;
54372;SDS011;69157;53.094;10.016;2024-03-23T05:38:44;6.80;;;1.88;;
54372;SDS011;69157;53.094;10.016;2024-03-23T05:41:10;2.17;;;1.38;;
54372;SDS011;69157;53.094;10.016;2024-03-23T05:43:36;5.68;;;1.85;;
54372;SDS011;69157;53.094;10.016;2024-03-23T05:46:02;10.60;;;2.33;;
54372;SDS011;69157;53.094;10.016;2024-03-23T05:48:29;4.72;;;2.03;;
54372;SDS011;69157;53.094;10.016;2024-03-23T05:50:55;8.93;;;2.47;;
54372;SDS011;69157;53.094;10.016;2024-03-23T05:53:22;9.02;;;2.30;;
54372;SDS011;69157;53.094;10.016;2024-03-23T05:55:49;7.65;;;2.08;;
54372;SDS011;69157;53.094;10.016;2024-03-23T05:58:16;4.80;;;1.75;;
54372;SDS011;69157;53.094;10.016;2024-03-23T06:00:43;5.55;;;1.88;;
54372;SDS011;69157;53.094;10.016;2024-03-23T06:03:09;8.93;;;1.90;;
54372;SDS011;69157;53.094;10.016;2024-03-23T06:05:38;4.15;;;1.85;;
54372;SDS011;69157;53.094;10.016;2024-03-23T06:08:04;6.78;;;2.15;;
54372;SDS011;69157;53.094;10.016;2024-03-23T06:10:31;6.10;;;2.28;;
54372;SDS011;69157;53.094;10.016;2024-03-23T06:12:57;4.30;;;2.28;;
54372;SDS011;69157;53.094;10.016;2024-03-23T06:15:24;9.18;;;2.67;;
54372;SDS011;69157;53.094;10.016;2024-03-23T06:17:50;5.43;;;2.15;;
54372;SDS011;69157;53.094;10.016;2024-03-23T06:20:16;7.80;;;1.73;;
54372;SDS011;69157;53.094;10.016;2024-03-23T06:22:42;4.57;;;1.67;;
54372;SDS011;69157;53.094;10.016;2024-03-23T06:25:08;9.38;;;2.42;;
54372;SDS011;69157;53.094;10.016;2024-03-23T06:27:34;17.55;;;2.75;;
54372;SDS011;69157;53.094;10.016;2024-03-23T06:30:01;7.05;;;1.77;;
54372;SDS011;69157;53.094;10.016;2024-03-23T06:32:28;5.80;;;2.03;;
54372;SDS011;69157;53.094;10.016;2024-03-23T06:34:54;12.85;;;2.25;;
54372;SDS011;69157;53.094;10.016;2024-03-23T06:37:21;3.75;;;1.50;;
54372;SDS011;69157;53.094;10.016;2024-03-23T06:39:48;4.03;;;1.05;;
54372;SDS011;69157;53.094;10.016;2024-03-23T06:42:15;6.68;;;1.77;;
54372;SDS011;69157;53.094;10.016;2024-03-23T06:44:41;14.18;;;2.53;;
54372;SDS011;69157;53.094;10.016;2024-03-23T06:47:07;15.10;;;1.95;;
54372;SDS011;69157;53.094;10.016;2024-03-23T06:49:34;7.22;;;1.88;;
54372;SDS011;69157;53.094;10.016;2024-03-23T06:52:00;6.60;;;1.63;;
54372;SDS011;69157;53.094;10.016;2024-03-23T06:54:26;7.28;;;1.83;;
54372;SDS011;69157;53.094;10.016;2024-03-23T06:56:52;7.88;;;2.00;;
54372;SDS011;69157;53.094;10.016;2024-03-23T06:59:18;4.82;;;1.35;;
54372;SDS011;69157;53.094;10.016;2024-03-23T07:01:44;6.72;;;1.60;;
54372;SDS011;69157;53.094;10.016;2024-03-23T07:04:11;5.43;;;1.70;;
54372;SDS011;69157;53.094;10.016;2024-03-23T07:06:43;6.10;;;1.45;;
54372;SDS011;69157;53.094;10.016;2024-03-23T07:09:09;5.55;;;1.48;;
54372;SDS011;69157;53.094;10.016;2024-03-23T07:11:35;3.97;;;1.67;;
54372;SDS011;69157;53.094;10.016;2024-03-23T07:14:01;4.38;;;1.33;;
54372;SDS011;69157;53.094;10.016;2024-03-23T07:16:30;5.15;;;1.25;;
54372;SDS011;69157;53.094;10.016;2024-03-23T07:18:56;5.22;;;1.73;;
54372;SDS011;69157;53.094;10.016;2024-03-23T07:21:22;6.45;;;1.50;;
54372;SDS011;69157;53.094;10.016;2024-03-23T07:23:48;12.60;;;1.80;;
54372;SDS011;69157;53.094;10.016;2024-03-23T07:26:14;9.35;;;1.80;;
54372;SDS011;69157;53.094;10.016;2024-03-23T07:28:40;7.53;;;1.50;;
54372;SDS011;69157;53.094;10.016;2024-03-23T07:31:11;6.60;;;1.48;;
54372;SDS011;69157;53.094;10.016;2024-03-23T07:33:41;5.90;;;1.40;;
54372;SDS011;69157;53.094;10.016;2024-03-23T07:36:08;3.38;;;1.13;;
54372;SDS011;69157;53.094;10.016;2024-03-23T07:38:33;3.45;;;1.50;;
54372;SDS011;69157;53.094;10.016;2024-03-23T07:41:06;3.67;;;1.30;;
54372;SDS011;69157;53.094;10.016;2024-03-23T07:43:32;9.73;;;1.80;;
54372;SDS011;69157;53.094;10.016;2024-03-23T07:45:59;4.00;;;1.50;;
54372;SDS011;69157;53.094;10.016;2024-03-23T07:48:25;8.63;;;1.65;;
54372;SDS011;69157;53.094;10.016;2024-03-23T07:50:58;4.72;;;1.60;;
54372;SDS011;69157;53.094;10.016;2024-03-23T07:53:24;3.15;;;1.40;;
54372;SDS011;69157;53.094;10.016;2024-03-23T07:56:00;8.00;;;1.65;;
54372;SDS011;69157;53.094;10.016;2024-03-23T07:58:26;7.93;;;1.60;;
54372;SDS011;69157;53.094;10.016;2024-03-23T08:00:52;6.47;;;1.77;;
54372;SDS011;69157;53.094;10.016;2024-03-23T08:03:18;4.15;;;1.67;;
54372;SDS011;69157;53.094;10.016;2024-03-23T08:05:44;4.85;;;1.20;;
54372;SDS011;69157;53.094;10.016;2024-03-23T08:08:10;3.72;;;1.45;;
54372;SDS011;69157;53.094;10.016;2024-03-23T08:10:37;9.10;;;1.85;;
54372;SDS011;69157;53.094;10.016;2024-03-23T08:13:03;9.18;;;1.60;;
54372;SDS011;69157;53.094;10.016;2024-03-23T08:15:30;11.07;;;1.70;;
54372;SDS011;69157;53.094;10.016;2024-03-23T08:17:59;13.55;;;1.67;;
54372;SDS011;69157;53.094;10.016;2024-03-23T08:20:25;8.75;;;1.90;;
54372;SDS011;69157;53.094;10.016;2024-03-23T08:22:52;5.88;;;1.48;;
54372;SDS011;69157;53.094;10.016;2024-03-23T08:25:17;9.73;;;1.77;;
54372;SDS011;69157;53.094;10.016;2024-03-23T08:27:44;5.90;;;1.30;;
54372;SDS011;69157;53.094;10.016;2024-03-23T08:30:10;2.15;;;1.13;;
54372;SDS011;69157;53.094;10.016;2024-03-23T08:32:36;7.50;;;1.42;;
54372;SDS011;69157;53.094;10.016;2024-03-23T08:35:03;4.63;;;1.40;;
54372;SDS011;69157;53.094;10.016;2024-03-23T08:37:29;3.60;;;1.35;;
54372;SDS011;69157;53.094;10.016;2024-03-23T08:39:55;7.20;;;1.17;;
54372;SDS011;69157;53.094;10.016;2024-03-23T08:42:22;8.10;;;1.50;;
54372;SDS011;69157;53.094;10.016;2024-03-23T08:44:47;1.38;;;1.08;;
54372;SDS011;69157;53.094;10.016;2024-03-23T08:47:15;6.38;;;1.70;;
54372;SDS011;69157;53.094;10.016;2024-03-23T08:49:41;7.00;;;1.48;;
54372;SDS011;69157;53.094;10.016;2024-03-23T08:52:08;3.60;;;1.17;;
54372;SDS011;69157;53.094;10.016;2024-03-23T08:54:34;3.90;;;1.30;;
54372;SDS011;69157;53.094;10.016;2024-03-23T08:57:00;2.55;;;1.30;;
54372;SDS011;69157;53.094;10.016;2024-03-23T08:59:26;7.05;;;1.73;;
54372;SDS011;69157;53.094;10.016;2024-03-23T09:01:52;6.13;;;1.83;;
54372;SDS011;69157;53.094;10.016;2024-03-23T09:04:18;7.55;;;1.83;;
54372;SDS011;69157;53.094;10.016;2024-03-23T09:06:44;3.45;;;1.40;;
54372;SDS011;69157;53.094;10.016;2024-03-23T09:09:10;7.15;;;2.10;;
54372;SDS011;69157;53.094;10.016;2024-03-23T09:11:38;7.40;;;2.72;;
54372;SDS011;69157;53.094;10.016;2024-03-23T09:14:04;3.72;;;2.40;;
54372;SDS011;69157;53.094;10.016;2024-03-23T09:16:30;5.50;;;2.33;;
54372;SDS011;69157;53.094;10.016;2024-03-23T09:18:57;3.55;;;1.90;;
54372;SDS011;69157;53.094;10.016;2024-03-23T09:21:23;3.80;;;2.13;;
54372;SDS011;69157;53.094;10.016;2024-03-23T09:23:49;3.88;;;1.83;;
54372;SDS011;69157;53.094;10.016;2024-03-23T09:26:15;6.68;;;2.50;;
54372;SDS011;69157;53.094;10.016;2024-03-23T09:28:41;5.05;;;2.28;;
54372;SDS011;69157;53.094;10.016;2024-03-23T09:31:09;6.72;;;2.63;;
54372;SDS011;69157;53.094;10.016;2024-03-23T09:33:39;8.63;;;2.28;;
54372;SDS011;69157;53.094;10.016;2024-03-23T09:36:05;3.00;;;2.03;;
54372;SDS011;69157;53.094;10.016;2024-03-23T09:38:31;6.28;;;2.72;;
54372;SDS011;69157;53.094;10.016;2024-03-23T09:40:57;2.88;;;2.22;;
54372;SDS011;69157;53.094;10.016;2024-03-23T09:43:24;7.10;;;1.80;;
54372;SDS011;69157;53.094;10.016;2024-03-23T09:45:50;1.92;;;1.77;;
54372;SDS011;69157;53.094;10.016;2024-03-23T09:48:16;6.25;;;2.38;;
54372;SDS011;69157;53.094;10.016;2024-03-23T09:50:43;9.00;;;1.63;;
54372;SDS011;69157;53.094;10.016;2024-03-23T09:53:10;2.10;;;1.27;;
54372;SDS011;69157;53.094;10.016;2024-03-23T09:55:39;3.53;;;2.03;;
54372;SDS011;69157;53.094;10.016;2024-03-23T09:58:05;5.80;;;1.80;;
54372;SDS011;69157;53.094;10.016;2024-03-23T10:00:32;2.88;;;1.40;;
54372;SDS011;69157;53.094;10.016;2024-03-23T10:02:58;4.55;;;1.88;;
54372;SDS011;69157;53.094;10.016;2024-03-23T10:05:27;4.60;;;1.60;;
54372;SDS011;69157;53.094;10.016;2024-03-23T10:07:53;1.75;;;1.50;;
54372;SDS011;69157;53.094;10.016;2024-03-23T10:10:20;6.20;;;1.48;;
54372;SDS011;69157;53.094;10.016;2024-03-23T10:12:50;2.67;;;2.05;;
54372;SDS011;69157;53.094;10.016;2024-03-23T10:15:19;2.72;;;1.60;;
54372;SDS011;69157;53.094;10.016;2024-03-23T10:17:45;3.03;;;1.60;;
54372;SDS011;69157;53.094;10.016;2024-03-23T10:20:13;3.05;;;1.40;;
54372;SDS011;69157;53.094;10.016;2024-03-23T10:22:45;4.07;;;1.50;;
54372;SDS011;69157;53.094;10.016;2024-03-23T10:25:12;4.20;;;2.05;;
54372;SDS011;69157;53.094;10.016;2024-03-23T10:27:38;4.57;;;0.85;;
54372;SDS011;69157;53.094;10.016;2024-03-23T10:30:11;4.00;;;1.02;;
54372;SDS011;69157;53.094;10.016;2024-03-23T10:32:37;4.38;;;1.10;;
54372;SDS011;69157;53.094;10.016;2024-03-23T10:35:13;3.38;;;0.80;;
54372;SDS011;69157;53.094;10.016;2024-03-23T10:37:39;2.17;;;1.08;;
54372;SDS011;69157;53.094;10.016;2024-03-23T10:40:05;2.72;;;1.23;;
54372;SDS011;69157;53.094;10.016;2024-03-23T10:42:32;4.18;;;1.35;;
54372;SDS011;69157;53.094;10.016;2024-03-23T10:45:00;2.38;;;1.08;;
54372;SDS011;69157;53.094;10.016;2024-03-23T10:47:26;4.72;;;1.10;;
54372;SDS011;69157;53.094;10.016;2024-03-23T10:49:53;4.90;;;1.00;;
54372;SDS011;69157;53.094;10.016;2024-03-23T10:52:19;5.03;;;1.10;;
54372;SDS011;69157;53.094;10.016;2024-03-23T10:54:46;7.03;;;1.27;;
54372;SDS011;69157;53.094;10.016;2024-03-23T10:57:14;3.97;;;1.08;;
54372;SDS011;69157;53.094;10.016;2024-03-23T10:59:40;3.28;;;1.05;;
54372;SDS011;69157;53.094;10.016;2024-03-23T11:02:07;7.65;;;1.23;;
54372;SDS011;69157;53.094;10.016;2024-03-23T11:04:38;4.18;;;1.00;;
54372;SDS011;69157;53.094;10.016;2024-03-23T11:09:49;1.80;;;0.90;;
54372;SDS011;69157;53.094;10.016;2024-03-23T11:14:50;3.03;;;1.13;;
54372;SDS011;69157;53.094;10.016;2024-03-23T11:17:23;5.53;;;0.98;;
54372;SDS011;69157;53.094;10.016;2024-03-23T11:20:07;1.27;;;1.00;;
54372;SDS011;69157;53.094;10.016;2024-03-23T11:25:24;3.55;;;1.20;;
54372;SDS011;69157;53.094;10.016;2024-03-23T11:27:51;6.50;;;1.40;;
54372;SDS011;69157;53.094;10.016;2024-03-23T11:30:18;5.60;;;1.65;;
54372;SDS011;69157;53.094;10.016;2024-03-23T11:32:45;4.13;;;0.95;;
54372;SDS011;69157;53.094;10.016;2024-03-23T11:35:24;6.80;;;1.08;;
54372;SDS011;69157;53.094;10.016;2024-03-23T11:40:44;0.73;;;0.73;;
54372;SDS011;69157;53.094;10.016;2024-03-23T11:43:15;2.92;;;0.93;;
54372;SDS011;69157;53.094;10.016;2024-03-23T11:45:45;2.40;;;1.10;;
54372;SDS011;69157;53.094;10.016;2024-03-23T11:48:15;2.75;;;0.88;;
54372;SDS011;69157;53.094;10.016;2024-03-23T11:50:43;1.30;;;0.73;;
54372;SDS011;69157;53.094;10.016;2024-03-23T11:53:13;3.60;;;1.30;;
54372;SDS011;69157;53.094;10.016;2024-03-23T11:55:43;8.35;;;1.30;;
54372;SDS011;69157;53.094;10.016;2024-03-23T11:58:11;1.33;;;0.80;;
54372;SDS011;69157;53.094;10.016;2024-03-23T12:00:37;2.95;;;1.30;;
54372;SDS011;69157;53.094;10.016;2024-03-23T12:03:03;5.38;;;1.00;;
54372;SDS011;69157;53.094;10.016;2024-03-23T12:05:29;3.60;;;1.30;;
54372;SDS011;69157;53.094;10.016;2024-03-23T12:07:55;1.52;;;1.02;;
54372;SDS011;69157;53.094;10.016;2024-03-23T12:10:21;3.22;;;1.17;;
54372;SDS011;69157;53.094;10.016;2024-03-23T12:13:00;1.55;;;1.27;;
54372;SDS011;69157;53.094;10.016;2024-03-23T12:15:26;2.10;;;0.90;;
54372;SDS011;69157;53.094;10.016;2024-03-23T12:18:05;4.90;;;1.00;;
54372;SDS011;69157;53.094;10.016;2024-03-23T12:20:31;2.53;;;0.90;;
54372;SDS011;69157;53.094;10.016;2024-03-23T12:23:05;2.45;;;1.00;;
54372;SDS011;69157;53.094;10.016;2024-03-23T12:25:31;1.45;;;0.88;;
54372;SDS011;69157;53.094;10.016;2024-03-23T12:27:58;1.25;;;0.80;;
54372;SDS011;69157;53.094;10.016;2024-03-23T12:30:25;2.13;;;0.80;;
54372;SDS011;69157;53.094;10.016;2024-03-23T12:32:51;1.48;;;0.70;;
54372;SDS011;69157;53.094;10.016;2024-03-23T12:35:17;1.42;;;0.73;;
54372;SDS011;69157;53.094;10.016;2024-03-23T12:37:43;2.65;;;1.02;;
54372;SDS011;69157;53.094;10.016;2024-03-23T12:40:09;3.08;;;1.20;;
54372;SDS011;69157;53.094;10.016;2024-03-23T12:42:36;2.42;;;0.90;;
54372;SDS011;69157;53.094;10.016;2024-03-23T12:45:02;2.90;;;1.08;;
54372;SDS011;69157;53.094;10.016;2024-03-23T12:47:30;8.48;;;1.05;;
54372;SDS011;69157;53.094;10.016;2024-03-23T12:49:56;1.20;;;1.02;;
54372;SDS011;69157;53.094;10.016;2024-03-23T12:52:22;5.80;;;1.02;;
54372;SDS011;69157;53.094;10.016;2024-03-23T12:54:53;2.33;;;1.15;;
54372;SDS011;69157;53.094;10.016;2024-03-23T12:57:19;6.40;;;1.55;;
54372;SDS011;69157;53.094;10.016;2024-03-23T12:59:45;2.42;;;0.93;;
54372;SDS011;69157;53.094;10.016;2024-03-23T13:02:15;1.13;;;0.90;;
54372;SDS011;69157;53.094;10.016;2024-03-23T13:04:41;3.38;;;1.17;;
54372;SDS011;69157;53.094;10.016;2024-03-23T13:07:07;2.00;;;1.00;;
54372;SDS011;69157;53.094;10.016;2024-03-23T13:09:33;1.77;;;1.20;;
54372;SDS011;69157;53.094;10.016;2024-03-23T13:11:59;2.55;;;1.15;;
54372;SDS011;69157;53.094;10.016;2024-03-23T13:14:26;1.67;;;0.93;;
54372;SDS011;69157;53.094;10.016;2024-03-23T13:16:52;1.88;;;0.70;;
54372;SDS011;69157;53.094;10.016;2024-03-23T13:19:18;1.00;;;0.80;;
54372;SDS011;69157;53.094;10.016;2024-03-23T13:21:45;0.73;;;0.63;;
54372;SDS011;69157;53.094;10.016;2024-03-23T13:24:12;2.13;;;0.70;;
54372;SDS011;69157;53.094;10.016;2024-03-23T13:26:39;1.80;;;0.60;;
54372;SDS011;69157;53.094;10.016;2024-03-23T13:29:05;2.70;;;0.93;;
54372;SDS011;69157;53.094;10.016;2024-03-23T13:31:30;0.73;;;0.55;;
54372;SDS011;69157;53.094;10.016;2024-03-23T13:33:56;1.17;;;0.70;;
54372;SDS011;69157;53.094;10.016;2024-03-23T13:36:22;1.38;;;0.60;;
54372;SDS011;69157;53.094;10.016;2024-03-23T13:38:49;0.95;;;0.60;;
54372;SDS011;69157;53.094;10.016;2024-03-23T13:41:15;1.88;;;0.50;;
54372;SDS011;69157;53.094;10.016;2024-03-23T13:43:40;0.30;;;0.30;;
54372;SDS011;69157;53.094;10.016;2024-03-23T13:46:07;0.40;;;0.30;;
54372;SDS011;69157;53.094;10.016;2024-03-23T13:48:35;1.10;;;0.40;;
54372;SDS011;69157;53.094;10.016;2024-03-23T13:51:03;4.82;;;0.80;;
54372;SDS011;69157;53.094;10.016;2024-03-23T13:53:30;0.70;;;0.70;;
54372;SDS011;69157;53.094;10.016;2024-03-23T13:55:57;0.30;;;0.30;;
54372;SDS011;69157;53.094;10.016;2024-03-23T13:58:23;1.50;;;0.50;;
54372;SDS011;69157;53.094;10.016;2024-03-23T14:00:52;0.47;;;0.45;;
54372;SDS011;69157;53.094;10.016;2024-03-23T14:03:19;0.50;;;0.50;;
54372;SDS011;69157;53.094;10.016;2024-03-23T14:05:45;0.70;;;0.50;;
54372;SDS011;69157;53.094;10.016;2024-03-23T14:08:14;1.55;;;0.60;;
54372;SDS011;69157;53.094;10.016;2024-03-23T14:10:40;0.77;;;0.55;;
54372;SDS011;69157;53.094;10.016;2024-03-23T14:13:07;0.52;;;0.52;;
54372;SDS011;69157;53.094;10.016;2024-03-23T14:15:33;0.73;;;0.55;;
54372;SDS011;69157;53.094;10.016;2024-03-23T14:17:59;1.42;;;0.43;;
54372;SDS011;69157;53.094;10.016;2024-03-23T14:20:25;0.50;;;0.50;;
54372;SDS011;69157;53.094;10.016;2024-03-23T14:22:52;0.63;;;0.60;;
54372;SDS011;69157;53.094;10.016;2024-03-23T14:25:18;0.40;;;0.40;;
54372;SDS011;69157;53.094;10.016;2024-03-23T14:27:45;1.27;;;0.50;;
54372;SDS011;69157;53.094;10.016;2024-03-23T14:30:11;1.85;;;0.60;;
54372;SDS011;69157;53.094;10.016;2024-03-23T14:32:37;0.82;;;0.55;;
54372;SDS011;69157;53.094;10.016;2024-03-23T14:35:04;1.27;;;0.47;;
54372;SDS011;69157;53.094;10.016;2024-03-23T14:37:32;3.70;;;0.50;;
54372;SDS011;69157;53.094;10.016;2024-03-23T14:39:58;0.40;;;0.40;;
54372;SDS011;69157;53.094;10.016;2024-03-23T14:42:24;2.13;;;0.50;;
54372;SDS011;69157;53.094;10.016;2024-03-23T14:44:50;0.45;;;0.45;;
54372;SDS011;69157;53.094;10.016;2024-03-23T14:47:17;1.13;;;0.43;;
54372;SDS011;69157;53.094;10.016;2024-03-23T14:49:44;0.45;;;0.45;;
54372;SDS011;69157;53.094;10.016;2024-03-23T14:52:16;0.47;;;0.38;;
54372;SDS011;69157;53.094;10.016;2024-03-23T14:54:42;1.73;;;0.70;;
54372;SDS011;69157;53.094;10.016;2024-03-23T14:57:09;1.00;;;0.40;;
54372;SDS011;69157;53.094;10.016;2024-03-23T14:59:35;0.45;;;0.40;;
54372;SDS011;69157;53.094;10.016;2024-03-23T15:02:07;0.43;;;0.43;;
54372;SDS011;69157;53.094;10.016;2024-03-23T15:04:33;0.98;;;0.55;;
54372;SDS011;69157;53.094;10.016;2024-03-23T15:06:59;1.13;;;0.70;;
54372;SDS011;69157;53.094;10.016;2024-03-23T15:09:26;4.97;;;0.93;;
54372;SDS011;69157;53.094;10.016;2024-03-23T15:11:52;1.60;;;0.75;;
54372;SDS011;69157;53.094;10.016;2024-03-23T15:14:21;1.13;;;0.57;;
54372;SDS011;69157;53.094;10.016;2024-03-23T15:16:49;1.17;;;0.52;;
54372;SDS011;69157;53.094;10.016;2024-03-23T15:19:16;0.80;;;0.65;;
54372;SDS011;69157;53.094;10.016;2024-03-23T15:21:42;0.68;;;0.68;;
54372;SDS011;69157;53.094;10.016;2024-03-23T15:24:08;0.60;;;0.60;;
54372;SDS011;69157;53.094;10.016;2024-03-23T15:26:38;2.03;;;0.73;;
54372;SDS011;69157;53.094;10.016;2024-03-23T15:29:04;0.55;;;0.40;;
54372;SDS011;69157;53.094;10.016;2024-03-23T15:31:37;4.15;;;0.40;;
54372;SDS011;69157;53.094;10.016;2024-03-23T15:34:03;0.30;;;0.30;;